Conejos, Valles Caldera, New Mexico Weather observations

Data are for 10 minute period ending at time listed.
 Day   Time   Solar   Ave.   Ave.  Ave.  Vector  Max.   Baro.   Total    
  of    of     Rad.   Air    Rel.  Wind   Wind   Wind  Press.  Precip.   
Year   Day            Temp.  Hum.  Speed  Dir.   Gust                    
2015   (MST)  Kw/m2    F      %     mph   deg.    mph    mb.     in.     
-------------------------------------------------------------------------
  87    6:30   0.01   40.7    40    2.1   332     3.0   99999.0    0.00 
  87    6:40   0.03   39.0    42    2.3   336     3.0   99999.0    0.00 
  87    6:50   0.08   38.7    44    2.6   333     3.6   99999.0    0.00 
  87    7:00   0.04   39.2    44    2.8   332     3.6   99999.0    0.00 
  87    7:10   0.06   40.8    43    2.8   337     4.2   99999.0    0.00 
  87    7:20   0.06   41.9    43    2.8   338     4.8   99999.0    0.00 
  87    7:30   0.19   46.0    35    3.0   337     4.8   99999.0    0.00 
  87    7:40   0.30   48.1    32    3.9   337     6.6   99999.0    0.00 
  87    7:50   0.18   49.7    30    3.6   339     7.8   99999.0    0.00 
  87    8:00   0.06   50.8    28    3.8   339     7.8   99999.0    0.00 
  87    8:10   0.10   51.7    28    3.6   341     7.2   99999.0    0.00 
  87    8:20   0.31   52.5    27    3.2   344     4.8   99999.0    0.00 
  87    8:30   0.26   53.7    25    3.9   341     6.0   99999.0    0.00 
  87    8:40   0.31   54.4    24    3.2   346     6.0   99999.0    0.00 
  87    8:50   0.27   55.5    22    3.5   327     8.4   99999.0    0.00 
  87    9:00   0.64   56.0    21    3.4   326     7.2   99999.0    0.00 
  87    9:10   0.29   57.0    20    3.1   336     6.0   99999.0    0.00 
  87    9:20   0.16   58.3    20    2.3   265     5.4   99999.0    0.00 
  87    9:30   0.14   58.8    22    2.4   251     6.6   99999.0    0.00 
  87    9:40   0.19   58.0    24    3.8   156     7.8   99999.0    0.00 
  87    9:50   0.13   56.0    27    3.9   170     7.8   99999.0    0.00 
  87   10:00   0.11   56.3    28    2.7    14     5.4   99999.0    0.00 
  87   10:10   0.14   57.5    26    2.0   230     5.4   99999.0    0.00 
  87   10:20   0.83   57.2    26    2.7   257     6.6   99999.0    0.00 
  87   10:30   0.87   57.6    27    3.2   173     7.2   99999.0    0.00 
  87   10:40   0.89   58.1    27    2.7   308     6.0   99999.0    0.00 
  87   10:50   0.91   58.3    25    2.7   338     5.4   99999.0    0.00 
  87   11:00   0.92   58.8    23    3.2   309     6.0   99999.0    0.00 
  87   11:10   0.93   60.8    21    2.9   223     6.9   99999.0    0.00 
  87   11:20   0.94   60.0    21    3.1   239     6.0   99999.0    0.00 
  87   11:30   0.94   60.2    21    3.1   304     7.2   99999.0    0.00 
  87   11:40   0.95   60.1    21    2.6   272     6.6   99999.0    0.00 
  87   11:50   0.95   59.9    20    3.2   294     7.2   99999.0    0.00 
  87   12:00   0.95   60.4    20    3.3   344     7.8   99999.0    0.01 
  87   12:10   0.95   61.1    20    3.0   270     7.8   99999.0    0.00 
  87   12:20   0.95   61.5    20    3.4   335     6.6   99999.0    0.00 
  87   12:30   0.94   62.6    19    3.8   218     8.4   99999.0    0.00 
  87   12:40   0.85   61.8    19    3.5    42     8.4   99999.0    0.00 
  87   12:50   0.93   63.0    18    3.7   356     8.1   99999.0    0.00 
  87   13:00   0.92   64.0    16    4.6   310    13.7   99999.0    0.00 
  87   13:10   0.91   63.8    16    3.8     3     7.8   99999.0    0.00 
  87   13:20   0.89   63.5    16    4.3    33    10.2   99999.0    0.00 
  87   13:30   0.87   64.4    16    4.1    37     7.8   99999.0    0.00 
  87   13:40   0.85   63.9    15    4.0    15     8.4   99999.0    0.00 
  87   13:50   0.33   64.0    15    4.5    24     9.0   99999.0    0.00 
  87   14:00   0.16   64.1    15    3.9    72     9.0   99999.0    0.00 
  87   14:10   0.09   63.7    14    5.0   359    10.8   99999.0    0.00 
  87   14:20   0.09   62.6    14    5.2   318    10.8   99999.0    0.00 
  87   14:30   0.29   62.9    14    5.1     0    10.8   99999.0    0.00 
  87   14:40   0.23   62.9    14    7.3   352    15.5   99999.0    0.00 
  87   14:50   0.11   62.4    14    5.2   354     9.6   99999.0    0.00 
  87   15:00   0.06   63.0    14    4.1   339     9.0   99999.0    0.00 
  87   15:10   0.07   63.7    13    4.0    90    13.1   99999.0    0.00 
  87   15:20   0.05   64.2    13    3.4    58     7.8   99999.0    0.00 
  87   15:30   0.04   64.1    12    4.7    25    10.8   99999.0    0.00 
  87   15:40   0.03   63.7    13    4.2   357    11.3   99999.0    0.00 
  87   15:50   0.06   64.4    12    4.1    86     8.4   99999.0    0.00 
  87   16:00   0.05   63.0    12    5.9     0    11.3   99999.0    0.00 
  87   16:10   0.06   63.2    13    4.2    22     9.0   99999.0    0.00 
  87   16:20   0.09   63.2    13    3.8    17     7.8   99999.0    0.00 
  87   16:30   0.03   62.6    13    4.5   342    10.8   99999.0    0.00 
  87   16:40   0.04   62.3    13    4.9   334     9.0   99999.0    0.00 
  87   16:50   0.03   61.8    12    4.9    25    11.9   99999.0    0.00 
  87   17:00   0.05   61.4    13    5.4     5    15.5   99999.0    0.01 
  87   17:10   0.03   61.1    13    5.3   338    12.5   99999.0    0.00 
  87   17:20   0.02   60.8    13    3.7   273     9.0   99999.0    0.00 
  87   17:30   0.02   60.6    12    4.7   318    11.9   99999.0    0.00 
  87   17:40   0.02   60.1    13    3.3   292     7.2   99999.0    0.00 
  87   17:50   0.01   59.7    13    3.0   311     5.4   99999.0    0.00 
  87   18:00   0.01   59.1    13    2.5   306     4.8   99999.0    0.00 
  87   18:10   0.01   58.8    13    3.4   322    10.2   99999.0    0.00 
  87   18:20   0.01   58.4    14    2.6   300     4.8   99999.0    0.00 
  87   18:30   0.00   57.4    15    2.7   317     8.4   99999.0    0.00 
  87   18:40   0.00   55.9    17    2.3   314     7.8   99999.0    0.00 
  87   18:50   0.00   55.1    18    3.3   321     7.2   99999.0    0.00 
  87   19:00   0.00   54.6    19    3.3   320     5.4   99999.0    0.00 
  87   19:10   0.00   54.8    19    4.4   320     9.6   99999.0    0.00 
  87   19:20   0.00   54.3    20    4.2   325     9.0   99999.0    0.00 
  87   19:30   0.00   54.3    20    3.5   332     6.9   99999.0    0.00 
  87   19:40   0.00   53.9    20    4.0   328     8.4   99999.0    0.00 
  87   19:50   0.00   53.5    21    4.0   326     6.6   99999.0    0.00 
  87   20:00   0.00   53.1    22    4.1   330     7.2   99999.0    0.00 
  87   20:10   0.00   52.8    22    4.4   328     6.6   99999.0    0.00 
  87   20:20   0.00   52.1    23    3.9   331     6.6   99999.0    0.00 
  87   20:30   0.00   51.9    23    4.0   332     6.6   99999.0    0.00 
  87   20:40   0.00   50.9    25    3.5   339     6.0   99999.0    0.00 
  87   20:50   0.00   51.0    24    3.4   330     4.8   99999.0    0.00 
  87   21:00   0.00   51.2    24    4.4   334     7.8   99999.0    0.00 
  87   21:10   0.00   50.8    24    4.1   330     6.6   99999.0    0.00 
  87   21:20   0.00   51.3    23    4.3   325     7.2   99999.0    0.00 
  87   21:30   0.00   51.3    23    4.2   331     7.8   99999.0    0.00 
  87   21:40   0.00   51.1    24    4.8   328     9.0   99999.0    0.00 
  87   21:50   0.00   51.5    24    4.5   326     7.2   99999.0    0.00 
  87   22:00   0.00   50.9    24    4.5   326     7.2   99999.0    0.00 
  87   22:10   0.00   51.5    23    5.3   326    10.2   99999.0    0.00 
  87   22:20   0.00   51.4    23    4.9   330     8.4   99999.0    0.00 
  87   22:30   0.00   51.6    23    5.3   326     9.0   99999.0    0.00 
  87   22:40   0.00   52.1    22    5.1   328     8.4   99999.0    0.00 
  87   22:50   0.00   52.2    22    5.3   328     9.0   99999.0    0.00 
  87   23:00   0.00   51.9    23    5.1   331     7.8   99999.0    0.00 
  87   23:10   0.00   51.0    23    4.8   327     6.6   99999.0    0.00 
  87   23:20   0.00   50.7    23    4.7   329     7.8   99999.0    0.00 
  87   23:30   0.00   51.1    22    5.0   328     9.0   99999.0    0.00 
  87   23:40   0.00   51.1    22    5.2   325     9.0   99999.0    0.00 
  87   23:50   0.00   51.3    21    5.0   329    10.8   99999.0    0.00 
  88    0:00   0.00   51.6    21    5.3   329     9.6   99999.0    0.00 
  88    0:10   0.00   51.0    22    5.3   331     9.6   99999.0    0.00 
  88    0:20   0.00   50.8    23    5.4   322     9.0   99999.0    0.00 
  88    0:30   0.00   51.4    22    5.2   326    10.2   99999.0    0.00 
  88    0:40   0.00   51.2    22    5.3   327    10.2   99999.0    0.00 
  88    0:50   0.00   50.9    22    4.6   325     8.7   99999.0    0.00 
  88    1:00   0.00   50.9    21    5.2   322    10.2   99999.0    0.00 
  88    1:10   0.00   51.2    21    4.9   323    10.2   99999.0    0.00 
  88    1:20   0.00   50.9    22    5.0   324    10.8   99999.0    0.00 
  88    1:30   0.00   51.3    21    5.9   328     9.6   99999.0    0.00 
  88    1:40   0.00   51.0    22    5.1   326     8.4   99999.0    0.00 
  88    1:50   0.00   51.1    22    5.4   320     9.0   99999.0    0.00 
  88    2:00   0.00   51.1    22    5.6   322    10.8   99999.0    0.00 
  88    2:10   0.00   51.3    22    4.9   322    10.8   99999.0    0.00 
  88    2:20   0.00   51.3    21    4.8   320     7.2   99999.0    0.00 
  88    2:30   0.00   51.1    22    4.3   316     7.2   99999.0    0.00 
  88    2:40   0.00   50.6    22    4.4   319    10.2   99999.0    0.00 
  88    2:50   0.00   49.7    23    3.6   316     6.6   99999.0    0.00 
  88    3:00   0.00   49.7    23    4.1   321     6.6   99999.0    0.00 
  88    3:10   0.00   50.2    23    4.4   317     9.0   99999.0    0.00 
  88    3:20   0.00   50.1    23    3.6   319     7.8   99999.0    0.00 
  88    3:30   0.00   49.9    24    3.4   319     6.6   99999.0    0.00 
  88    3:40   0.00   48.9    24    2.3   320     4.2   99999.0    0.00 
  88    3:50   0.00   47.8    26    2.7   327     6.0   99999.0    0.00 
  88    4:00   0.00   46.9    27    2.7   325     3.6   99999.0    0.00 
  88    4:10   0.00   46.7    27    2.8   329     4.2   99999.0    0.00 
  88    4:20   0.00   46.2    28    2.7   330     4.8   99999.0    0.00 
  88    4:30   0.00   45.6    29    2.7   331     4.2   99999.0    0.00 
  88    4:40   0.00   45.5    29    3.2   330     4.8   99999.0    0.00 
  88    4:50   0.00   45.7    29    3.7   330     5.4   99999.0    0.00 
  88    5:00   0.00   44.9    30    3.5   337     4.8   99999.0    0.00 
  88    5:10   0.00   44.4    30    3.7   335     4.8   99999.0    0.00 
  88    5:20   0.00   44.2    30    3.2   334     4.2   99999.0    0.00 
  88    5:30   0.00   44.2    30    2.9   334     4.2   99999.0    0.00 
  88    5:40   0.00   44.5    29    3.1   332     4.2   99999.0    0.00 
  88    5:50   0.00   44.5    30    3.2   328     4.2   99999.0    0.00 
  88    6:00   0.00   45.2    28    3.4   331     4.8   99999.0    0.00 
  88    6:10   0.01   45.4    28    3.3   332     4.8   99999.0    0.00 
  88    6:20   0.01   45.5    28    2.8   330     4.2   99999.0    0.00 

Return to Conejos, Valles Caldera graphs page.


Western Regional Climate Center,wrcc@dri.edu